Terminal Aerodrome Forecast
Issued by NWS El Paso, TX

Home | Current Version | Previous Version | Text Only | Print | Product List | Glossary On
Versions: 1 2 3 4 5 6 7 8 9 10 11 12 13 14 15 16
555
FTUS44 KEPZ 201721
TAFELP
TAF
KELP 201721Z 2018/2118 VRB05KT P6SM VCSH SCT020 BKN060 OVC120
      TEMPO 2018/2020 5SM RA BKN015
     FM202200 20008KT P6SM VCTS SCT040CB BKN060 BKN100
      TEMPO 2100/2104 VRB25G35KT 1SM TSRA BKN020CB BKN070 OVC140
     FM210600 16006KT P6SM VCSH SCT015 SCT040 BKN060
     FM211200 18005KT P6SM SCT008 BKN060
      TEMPO 2112/2116 3SM BR BKN008=

USA.gov is the U.S. government's official web portal to all federal, state and local government web resources and services.